Time;durP1;ratioP1;P1;durP2;ratioP2;P2;SDS_P1;SDS_P2;PMS_P1;PMS_P2;Temp;Humidity;BMP_temperature;BMP_pressure;BME280_temperature;BME280_humidity;BME280_pressure;Samples;Min_cycle;Max_cycle;Signal;HPM_P1;HPM_P2
2022/05/02 00:00:48;;;;;;;;;16.00;15.00;;;;;15.04;45.74;101200.91;4875782;29;45440;-83
2022/05/02 00:03:14;;;;;;;;;18.00;17.00;;;;;14.84;45.77;101161.53;4878501;29;45729;-84
2022/05/02 00:05:41;;;;;;;;;16.33;16.33;;;;;15.06;45.60;101196.44;4878152;29;45627;-84
2022/05/02 00:08:07;;;;;;;;;17.33;17.00;;;;;14.94;45.68;101182.09;4891768;29;46562;-83
2022/05/02 00:10:33;;;;;;;;;18.33;16.00;;;;;14.96;45.79;101191.03;4891899;29;45463;-84
2022/05/02 00:12:59;;;;;;;;;16.33;15.33;;;;;14.95;46.00;101183.91;4875308;29;45426;-84
2022/05/02 00:15:24;;;;;;;;;18.33;16.00;;;;;14.89;45.98;101189.25;4876016;29;45825;-83
2022/05/02 00:17:57;;;;;;;;;16.33;15.33;;;;;14.72;46.87;101156.16;4891539;29;46438;-84
2022/05/02 00:20:24;;;;;;;;;16.00;15.33;;;;;14.69;45.95;101158.84;4875851;29;45360;-84
2022/05/02 00:22:50;;;;;;;;;17.33;17.00;;;;;14.83;45.80;101181.19;4874941;29;45435;-84
2022/05/02 00:25:16;;;;;;;;;15.67;14.33;;;;;14.85;45.85;101179.41;4891628;29;45463;-83
2022/05/02 00:27:42;;;;;;;;;17.00;16.00;;;;;14.79;46.66;101168.69;4874339;29;47502;-84
2022/05/02 00:30:10;;;;;;;;;23.00;19.00;;;;;14.79;46.15;101168.69;4893941;29;44712;-83
2022/05/02 00:32:35;;;;;;;;;20.67;18.00;;;;;14.72;46.16;101165.06;4894044;29;44737;-83
2022/05/02 00:35:02;;;;;;;;;16.67;15.67;;;;;14.82;46.17;101170.47;4877780;29;45680;-85
2022/05/02 00:37:29;;;;;;;;;18.33;15.33;;;;;14.72;46.31;101158.81;4877608;29;47651;-85
2022/05/02 00:44:27;;;;;;;;;13.50;13.50;;;;;14.89;46.51;101174.97;4892193;29;45506;-84
2022/05/02 00:46:59;;;;;;;;;20.33;18.33;;;;;14.84;46.20;101169.56;4871326;29;45486;-84
2022/05/02 00:49:24;;;;;;;;;18.67;16.00;;;;;14.75;46.64;101164.22;4871664;29;45454;-84
2022/05/02 00:51:50;;;;;;;;;21.00;16.33;;;;;14.66;47.11;101153.44;4870948;29;44884;-84
2022/05/02 00:54:15;;;;;;;;;22.33;19.33;;;;;14.62;47.09;101154.31;4872217;29;45279;-84
2022/05/02 00:56:41;;;;;;;;;18.67;17.00;;;;;14.61;46.90;101150.75;4872052;29;45387;-84
2022/05/02 00:59:11;;;;;;;;;20.67;16.00;;;;;14.63;47.16;101142.75;4855497;29;46960;-84
2022/05/02 01:01:36;;;;;;;;;18.00;16.00;;;;;14.51;47.43;101128.38;4854503;29;46386;-83
2022/05/02 01:04:01;;;;;;;;;19.00;18.00;;;;;14.57;47.52;101141.81;4871736;29;45431;-84
2022/05/02 01:09:11;;;;;;;;;14.33;13.33;;;;;14.44;48.16;101137.28;4872666;29;45450;-83
2022/05/02 01:11:36;;;;;;;;;17.67;17.67;;;;;14.41;48.36;101132.78;4858417;29;45405;-83
2022/05/02 01:14:01;;;;;;;;;17.67;15.00;;;;;14.33;48.12;101125.63;4874567;29;45408;-84
2022/05/02 01:16:28;;;;;;;;;18.67;16.00;;;;;14.33;48.16;101134.53;4858962;29;45451;-84
2022/05/02 01:18:57;;;;;;;;;17.00;15.00;;;;;14.23;48.63;101127.34;4857403;29;46919;-83
2022/05/02 01:21:29;;;;;;;;;17.00;16.33;;;;;14.21;48.55;101124.66;4856121;29;44873;-83
2022/05/02 01:23:59;;;;;;;;;14.33;14.33;;;;;14.15;48.92;101126.41;4873134;29;45521;-84
2022/05/02 01:26:24;;;;;;;;;15.67;14.00;;;;;14.05;49.06;101122.78;4855812;29;45458;-84
2022/05/02 01:28:55;;;;;;;;;23.67;18.00;;;;;14.14;49.44;101130.88;4855187;29;47410;-84
2022/05/02 01:31:20;;;;;;;;;16.67;14.00;;;;;14.06;49.37;101129.94;4871781;29;44849;-83
2022/05/02 01:33:48;;;;;;;;;16.33;15.33;;;;;14.06;49.71;101121.94;4872704;29;44817;-84
2022/05/02 01:36:15;;;;;;;;;17.67;15.67;;;;;14.01;49.35;101127.22;4858031;29;45464;-84
2022/05/02 01:38:41;;;;;;;;;20.00;16.67;;;;;13.97;49.63;101124.53;4858310;29;46771;-84
2022/05/02 01:41:07;;;;;;;;;18.00;17.00;;;;;13.90;49.52;101128.06;4856231;29;45303;-84
2022/05/02 01:43:35;;;;;;;;;20.67;20.33;;;;;13.96;50.60;101130.78;4873517;29;44802;-84
2022/05/02 01:46:01;;;;;;;;;14.33;14.33;;;;;13.87;50.69;101126.25;4886477;29;45547;-83
2022/05/02 01:48:27;;;;;;;;;20.00;15.00;;;;;13.80;50.20;101132.44;4874307;29;48489;-83
2022/05/02 01:50:53;;;;;;;;;17.67;16.00;;;;;13.72;50.18;101126.16;4874922;29;45517;-83
2022/05/02 01:53:19;;;;;;;;;14.67;14.67;;;;;13.64;50.53;101119.88;4875370;29;45496;-84
2022/05/02 01:55:46;;;;;;;;;21.33;19.33;;;;;13.73;51.36;101127.94;4875907;29;45626;-84
2022/05/02 01:58:11;;;;;;;;;20.00;17.67;;;;;13.59;51.17;101128.75;4873325;29;47199;-84
2022/05/02 02:00:37;;;;;;;;;23.33;20.67;;;;;13.59;50.50;101126.06;4873933;29;45525;-83
2022/05/02 02:03:03;;;;;;;;;17.33;14.67;;;;;13.64;51.25;101126.09;4875650;29;45547;-83
2022/05/02 02:08:12;;;;;;;;;17.33;16.67;;;;;13.66;51.03;101121.66;4893037;29;45857;-83
2022/05/02 02:10:38;;;;;;;;;19.00;17.67;;;;;13.68;51.35;101119.88;4876182;29;45330;-84
2022/05/02 02:13:04;;;;;;;;;18.00;18.00;;;;;13.65;51.38;101116.28;4875889;29;45473;-84
2022/05/02 02:15:29;;;;;;;;;20.33;16.33;;;;;13.68;50.92;101127.03;4891414;29;45478;-84
2022/05/02 02:17:55;;;;;;;;;15.33;15.33;;;;;13.63;51.38;101118.06;4873727;29;47153;-84
2022/05/02 02:20:21;;;;;;;;;18.33;14.33;;;;;13.62;51.49;101106.47;4889836;29;44837;-84
2022/05/02 02:22:47;;;;;;;;;22.00;19.67;;;;;13.62;51.80;101122.50;4872516;29;45393;-84
2022/05/02 02:25:12;;;;;;;;;15.33;14.00;;;;;13.65;51.58;101122.53;4888059;29;45823;-83
2022/05/02 02:27:38;;;;;;;;;17.67;17.67;;;;;13.68;51.58;101117.22;4872312;29;47131;-84
2022/05/02 02:30:04;;;;;;;;;19.67;18.33;;;;;13.71;51.13;101119.00;4893255;29;45514;-84
2022/05/02 02:32:29;;;;;;;;;19.33;19.33;;;;;13.68;51.61;101111.88;4895038;29;44750;-85
2022/05/02 02:34:55;;;;;;;;;21.67;20.00;;;;;13.64;51.45;101110.06;4896114;29;45444;-83
2022/05/02 02:37:20;;;;;;;;;20.00;18.00;;;;;13.67;51.74;101106.50;4876821;29;46731;-83
2022/05/02 02:39:46;;;;;;;;;17.67;17.67;;;;;13.60;51.80;101103.78;4876417;29;45526;-83
2022/05/02 02:42:12;;;;;;;;;20.33;18.67;;;;;13.68;51.31;101114.53;4877008;29;45428;-84
2022/05/02 02:44:38;;;;;;;;;21.67;20.67;;;;;13.62;51.39;101103.81;4894067;29;45462;-84
2022/05/02 02:47:04;;;;;;;;;20.00;18.00;;;;;13.61;51.34;101107.34;4872922;29;47232;-84
2022/05/02 02:49:29;;;;;;;;;22.00;20.00;;;;;13.51;51.47;101094.81;4871973;29;45508;-84
2022/05/02 02:51:55;;;;;;;;;22.67;16.67;;;;;13.54;52.13;101095.72;4888994;29;45399;-85
2022/05/02 02:54:20;;;;;;;;;14.00;13.00;;;;;13.54;51.95;101108.19;4872539;29;45638;-85
2022/05/02 02:56:46;;;;;;;;;20.67;18.00;;;;;13.45;51.93;101086.75;4871663;29;47616;-84
2022/05/02 02:59:11;;;;;;;;;19.00;16.33;;;;;13.46;52.09;101099.22;4871566;29;45455;-85
2022/05/02 03:01:37;;;;;;;;;18.33;14.33;;;;;13.47;52.23;101090.31;4872138;29;45612;-85
2022/05/02 03:06:01;;;;;;;;;21.67;17.33;;;;;13.45;52.21;101086.75;4871884;29;45809;-84
2022/05/02 03:06:49;;;;;;;;;21.00;19.33;;;;;13.43;52.29;101093.84;4892203;29;45453;-85
2022/05/02 03:09:15;;;;;;;;;21.67;19.33;;;;;13.39;52.31;101084.91;4893764;29;45435;-84
2022/05/02 03:11:40;;;;;;;;;20.33;20.33;;;;;13.40;52.48;101087.59;4876640;29;45488;-82
2022/05/02 03:14:06;;;;;;;;;19.00;18.00;;;;;13.40;52.42;101100.97;4876770;29;44800;-83
2022/05/02 03:16:31;;;;;;;;;23.00;20.67;;;;;13.35;52.62;101086.69;4875788;29;47541;-84
2022/05/02 03:18:57;;;;;;;;;24.00;22.33;;;;;13.24;52.56;101071.41;4889864;29;45455;-83
2022/05/02 03:21:22;;;;;;;;;23.00;21.67;;;;;13.29;52.69;101078.63;4873383;29;45467;-84
2022/05/02 03:23:47;;;;;;;;;18.67;18.67;;;;;13.29;52.93;101081.28;4890004;29;45448;-84
2022/05/02 03:27:03;;;;;;;;;25.67;22.67;;;;;13.40;52.68;101082.25;4872135;29;47064;-84
2022/05/02 03:29:29;;;;;;;;;21.00;19.33;;;;;13.25;52.91;101067.84;4872323;29;45423;-84
2022/05/02 03:31:54;;;;;;;;;20.33;19.67;;;;;13.21;53.35;101069.63;4873018;29;44974;-84
2022/05/02 03:34:19;;;;;;;;;21.33;20.00;;;;;13.26;53.22;101075.88;4891470;29;45420;-83
2022/05/02 03:36:45;;;;;;;;;21.00;18.00;;;;;13.24;53.53;101076.75;4874976;29;46877;-83
2022/05/02 03:39:10;;;;;;;;;21.00;19.67;;;;;13.25;53.51;101084.78;4876664;29;45322;-83
2022/05/02 03:41:36;;;;;;;;;20.33;20.33;;;;;13.20;53.71;101070.47;4876904;29;45456;-83
2022/05/02 03:44:01;;;;;;;;;16.67;16.67;;;;;13.23;53.71;101077.63;4876257;29;45361;-84
2022/05/02 03:46:27;;;;;;;;;17.67;17.67;;;;;13.25;53.93;101079.44;4893487;29;45392;-84
2022/05/02 03:48:52;;;;;;;;;20.67;20.33;;;;;13.17;53.97;101063.34;4894637;29;45736;-84
2022/05/02 03:51:18;;;;;;;;;17.00;16.33;;;;;13.17;53.74;101071.34;4877858;29;45455;-84
2022/05/02 03:53:43;;;;;;;;;19.67;18.00;;;;;13.20;54.10;101070.47;4892499;29;45505;-83
2022/05/02 03:56:09;;;;;;;;;19.67;16.33;;;;;13.15;54.16;101066.91;4875908;29;46872;-85
2022/05/02 03:58:41;;;;;;;;;23.33;20.33;;;;;13.21;53.96;101064.28;4876094;29;45578;-84
2022/05/02 04:01:06;;;;;;;;;20.00;17.33;;;;;13.11;54.27;101065.03;4880295;29;45344;-83
2022/05/02 04:03:32;;;;;;;;;23.67;18.67;;;;;13.07;54.51;101063.22;4897843;29;44796;-83
2022/05/02 04:05:57;;;;;;;;;20.33;18.33;;;;;13.12;54.35;101081.09;4896455;29;45454;-84
2022/05/02 04:08:23;;;;;;;;;24.67;22.33;;;;;13.01;54.37;101059.63;4878869;29;44831;-84
2022/05/02 04:10:48;;;;;;;;;24.33;22.33;;;;;13.09;54.62;101077.50;4895175;29;46003;-84
2022/05/02 04:13:13;;;;;;;;;19.67;19.67;;;;;13.08;54.62;101078.38;4894053;29;45451;-84
2022/05/02 04:15:39;;;;;;;;;23.00;22.00;;;;;13.06;54.79;101078.38;4891669;29;45635;-84
2022/05/02 04:18:06;;;;;;;;;22.33;19.00;;;;;13.08;54.96;101070.38;4890578;29;44897;-84
2022/05/02 04:20:31;;;;;;;;;24.00;24.00;;;;;12.96;54.78;101065.81;4892894;29;45353;-84
2022/05/02 04:22:58;;;;;;;;;24.00;20.33;;;;;13.02;54.98;101077.44;4876104;29;45454;-85
2022/05/02 04:25:23;;;;;;;;;24.00;21.33;;;;;12.96;54.80;101082.72;4876427;29;48397;-84
2022/05/02 04:27:49;;;;;;;;;20.00;19.33;;;;;12.98;55.21;101085.41;4875101;29;45813;-85
2022/05/02 04:30:14;;;;;;;;;22.00;20.00;;;;;12.90;55.07;101066.63;4894727;29;45412;-84
2022/05/02 04:32:40;;;;;;;;;22.00;22.00;;;;;12.90;55.08;101081.78;4894345;29;45418;-84
2022/05/02 04:35:06;;;;;;;;;21.67;20.33;;;;;12.88;55.23;101080.88;4874981;29;45586;-85
2022/05/02 04:37:32;;;;;;;;;25.33;23.33;;;;;12.86;55.45;101079.94;4891667;29;45259;-84
2022/05/02 04:39:59;;;;;;;;;27.00;27.00;;;;;12.77;55.34;101086.09;4874034;29;45863;-84
2022/05/02 04:42:24;;;;;;;;;25.00;22.00;;;;;12.76;55.50;101073.63;4891610;29;45849;-85
2022/05/02 04:44:50;;;;;;;;;26.00;24.67;;;;;12.83;55.55;101091.50;4889989;29;45180;-85
2022/05/02 04:47:16;;;;;;;;;29.33;26.00;;;;;12.81;55.72;101082.59;4872888;29;45425;-85
2022/05/02 04:49:42;;;;;;;;;26.67;25.33;;;;;12.78;55.84;101087.88;4892979;29;45537;-84
2022/05/02 04:52:07;;;;;;;;;25.67;24.00;;;;;12.76;55.17;101090.53;4895293;29;45432;-85
2022/05/02 04:54:32;;;;;;;;;31.33;27.67;;;;;12.74;55.54;101089.59;4894799;29;45460;-84
2022/05/02 04:56:58;;;;;;;;;24.67;24.67;;;;;12.72;55.71;101093.16;4877937;29;45368;-83
2022/05/02 04:59:23;;;;;;;;;30.67;27.33;;;;;12.72;56.26;101093.16;4894903;29;45443;-83
2022/05/02 05:01:50;;;;;;;;;30.67;30.33;;;;;12.66;56.82;101099.31;4880358;29;45647;-83
2022/05/02 05:04:15;;;;;;;;;27.67;25.33;;;;;12.54;58.12;101089.41;4876694;29;48370;-84
2022/05/02 05:06:41;;;;;;;;;35.33;27.00;;;;;12.48;57.57;101089.34;4893366;29;45362;-84
2022/05/02 05:09:06;;;;;;;;;29.33;27.33;;;;;12.47;56.99;101087.53;4893955;29;45350;-84
2022/05/02 05:11:59;;;;;;;;;32.00;29.00;;;;;12.57;56.65;101093.88;4877505;29;45377;-83
2022/05/02 05:17:21;;;;;;;;;33.00;33.00;;;;;12.51;59.33;101094.69;4891495;29;45392;-84
2022/05/02 05:20:08;;;;;;;;;40.33;33.00;;;;;12.40;57.70;101080.31;4875233;29;45421;-84
2022/05/02 05:22:49;;;;;;;;;32.33;29.67;;;;;12.46;59.21;101103.53;4870321;29;45601;-85
2022/05/02 05:25:48;;;;;;;;;33.67;33.00;;;;;12.44;58.35;101094.59;4872501;29;47412;-85
2022/05/02 05:28:35;;;;;;;;;27.33;27.33;;;;;12.47;58.22;101090.22;4887255;29;46337;-84
2022/05/02 05:31:10;;;;;;;;;37.33;31.67;;;;;12.49;57.28;101088.44;4876729;29;45893;-83
2022/05/02 05:33:51;;;;;;;;;34.67;33.00;;;;;12.53;58.25;101092.06;4896549;29;45446;-84
2022/05/02 05:36:20;;;;;;;;;44.50;35.75;;;;;12.42;58.70;101089.25;4875928;29;47623;-84
2022/05/02 05:39:05;;;;;;;;;38.33;33.00;;;;;12.53;58.14;101094.72;4878217;29;45317;-83
2022/05/02 05:42:12;;;;;;;;;45.25;37.50;;;;;12.61;57.79;101085.03;4894378;29;45370;-83
2022/05/02 05:45:02;;;;;;;;;38.50;34.00;;;;;12.59;58.78;101074.34;4876212;29;45452;-84
2022/05/02 05:47:33;;;;;;;;;34.00;31.00;;;;;12.66;58.46;101085.06;4856436;29;45503;-84
2022/05/02 05:50:15;;;;;;;;;38.00;33.67;;;;;12.54;57.81;101068.06;4860833;29;45296;-84
2022/05/02 05:52:56;;;;;;;;;43.75;37.25;;;;;12.41;58.01;101039.44;4859081;29;45463;-84
2022/05/02 05:55:30;;;;;;;;;35.33;34.67;;;;;12.58;59.26;101077.91;4874627;29;45502;-85
2022/05/02 05:58:49;;;;;;;;;43.25;35.00;;;;;12.71;58.36;101091.38;4858708;29;47138;-84
2022/05/02 06:04:10;;;;;;;;;40.00;33.25;;;;;12.54;58.83;101073.41;4873493;29;45327;-85
2022/05/02 06:06:39;;;;;;;;;43.00;35.33;;;;;12.51;59.52;101062.69;4878195;29;45622;-85
2022/05/02 06:09:06;;;;;;;;;39.75;36.25;;;;;12.62;58.47;101062.78;4878522;29;45390;-85
2022/05/02 06:11:36;;;;;;;;;42.00;35.75;;;;;12.76;58.54;101086.97;4877542;29;45414;-85
2022/05/02 06:14:05;;;;;;;;;41.00;36.75;;;;;12.79;57.97;101065.66;4879333;29;44792;-85
2022/05/02 06:19:25;;;;;;;;;46.00;35.75;;;;;13.05;57.98;101097.03;4878991;29;45507;-86
2022/05/02 06:21:52;;;;;;;;;43.67;37.00;;;;;12.91;58.33;101079.13;4877828;29;45450;-85
2022/05/02 06:24:18;;;;;;;;;45.25;37.00;;;;;12.90;57.42;101063.97;4879105;29;44811;-85
2022/05/02 06:26:49;;;;;;;;;50.25;40.50;;;;;13.07;57.78;101066.81;4857831;29;45520;-84
2022/05/02 06:29:18;;;;;;;;;42.00;36.00;;;;;13.20;56.68;101078.50;4858362;29;48117;-83
2022/05/02 06:31:50;;;;;;;;;42.75;36.75;;;;;13.17;56.69;101070.47;4858124;29;45429;-85
2022/05/02 06:34:29;;;;;;;;;46.25;38.50;;;;;13.36;56.92;101085.78;4861760;29;44741;-85
2022/05/02 06:37:04;;;;;;;;;39.33;37.00;;;;;13.31;56.61;101074.19;4877027;29;45286;-84
2022/05/02 06:39:38;;;;;;;;;44.33;36.00;;;;;13.50;56.09;101085.00;4878972;29;45313;-84
2022/05/02 06:42:24;;;;;;;;;47.33;37.33;;;;;13.61;55.79;101085.97;4859177;29;45365;-85
2022/05/02 06:45:05;;;;;;;;;42.33;37.33;;;;;13.74;55.32;101093.19;4873896;29;45494;-84
2022/05/02 06:47:37;;;;;;;;;48.67;39.00;;;;;13.73;55.81;101095.84;4878354;29;44921;-83
2022/05/02 06:50:08;;;;;;;;;48.00;39.00;;;;;13.79;55.54;101096.81;4880162;29;47249;-83
2022/05/02 06:52:44;;;;;;;;;42.33;37.00;;;;;13.78;55.17;101086.97;4879422;29;45475;-84
2022/05/02 06:55:56;;;;;;;;;50.33;39.33;;;;;13.86;55.02;101095.06;4879399;29;44927;-84
2022/05/02 06:58:48;;;;;;;;;45.00;36.00;;;;;13.88;55.25;101093.28;4861254;28;45464;-85
2022/05/02 07:01:56;;;;;;;;;45.25;38.00;;;;;14.03;54.98;101100.50;4854290;29;46726;-85
2022/05/02 07:04:33;;;;;;;;;50.25;40.50;;;;;14.08;54.66;101106.78;4852002;29;45701;-84
2022/05/02 07:07:23;;;;;;;;;48.00;40.00;;;;;14.03;54.87;101103.16;4857020;29;45182;-83
2022/05/02 07:10:17;;;;;;;;;52.00;40.50;;;;;14.24;54.83;101102.41;4841416;29;45375;-84
2022/05/02 07:13:05;;;;;;;;;53.00;40.00;;;;;14.34;54.55;101106.00;4839706;29;47051;-84
2022/05/02 07:15:55;;;;;;;;;47.00;40.00;;;;;14.56;54.30;101091.88;4844824;29;45574;-84
2022/05/02 07:18:57;;;;;;;;;54.00;40.25;;;;;14.85;53.49;101093.72;4842491;29;45714;-82
2022/05/02 07:21:49;;;;;;;;;51.25;41.50;;;;;15.08;52.99;101099.09;4859081;29;45562;-84
2022/05/02 07:24:57;;;;;;;;;44.67;37.67;;;;;15.20;52.66;101088.41;4848106;29;46778;-84
2022/05/02 07:28:07;;;;;;;;;49.50;40.00;;;;;15.28;51.72;101091.09;4870068;29;45600;-82
2022/05/02 07:30:51;;;;;;;;;;;;;;;;;;;;;
2022/05/02 07:33:20;;;;;;;;;51.50;39.50;;;;;15.49;52.18;101089.28;4834957;29;67257;-85
2022/05/02 07:39:22;;;;;;;;;42.67;37.00;;;;;15.62;50.96;101069.63;4880968;29;45142;-81
2022/05/02 07:41:50;;;;;;;;;48.00;40.75;;;;;15.82;50.50;101079.47;4881788;29;46030;-83
2022/05/02 07:44:33;;;;;;;;;;;;;;;;;;;;;
2022/05/02 07:47:12;;;;;;;;;42.50;35.75;;;;;15.85;49.91;101045.47;4896014;29;74009;-83
2022/05/02 07:53:24;;;;;;;;;45.50;37.75;;;;;16.78;48.45;101088.91;4827709;29;45577;-82
2022/05/02 07:55:55;;;;;;;;;46.75;39.00;;;;;16.83;48.19;101065.66;4835637;29;45352;-84
2022/05/02 07:58:24;;;;;;;;;46.25;39.50;;;;;16.98;47.20;101046.72;4838504;29;47861;-83
2022/05/02 08:05:08;;;;;;;;;39.75;35.75;;;;;17.70;45.56;101087.34;4840282;29;44833;-82
2022/05/02 08:08:35;;;;;;;;;43.50;36.25;;;;;17.95;43.98;101077.25;4842432;29;45535;-83
2022/05/02 08:11:39;;;;;;;;;47.00;38.33;;;;;18.06;42.51;101080.72;4804789;29;45546;-84
2022/05/02 08:14:52;;;;;;;;;41.67;37.33;;;;;18.09;42.45;101048.38;4786761;29;44858;-82
2022/05/02 08:17:49;;;;;;;;;47.33;39.33;;;;;18.22;41.98;101042.81;4782783;29;44816;-84
2022/05/02 08:21:03;;;;;;;;;;;;;;;;;;;;;
2022/05/02 08:27:34;;;;;;;;;41.67;36.00;;;;;18.38;39.29;101068.69;4803903;29;45968;-84
2022/05/02 08:30:09;;;;;;;;;45.33;39.00;;;;;18.23;40.21;101082.31;4800433;29;45537;-84
2022/05/02 08:40:10;;;;;;;;;;;;;;;;;;;;;
2022/05/02 08:47:05;;;;;;;;;47.50;40.00;;;;;18.03;41.81;101069.97;4764952;29;45899;-82
2022/05/02 08:49:56;;;;;;;;;50.75;40.75;;;;;18.03;40.78;101074.47;4767286;29;45523;-83
2022/05/02 08:52:59;;;;;;;;;43.25;36.00;;;;;18.14;40.62;101081.50;4756442;29;45602;-82
2022/05/02 08:56:00;;;;;;;;;53.50;42.50;;;;;18.14;40.97;101073.44;4821260;29;44888;-84
2022/05/02 08:59:33;;;;;;;;;51.25;42.00;;;;;18.21;41.66;101073.38;4831815;29;45545;-83
2022/05/02 09:02:51;;;;;;;;;50.75;41.25;;;;;18.37;40.79;101072.25;4825094;29;46595;-83
2022/05/02 09:05:50;;;;;;;;;50.75;40.75;;;;;18.22;41.57;101053.59;4819163;29;45880;-83
2022/05/02 09:09:13;;;;;;;;;46.50;40.50;;;;;18.37;41.15;101075.84;4820151;29;45456;-84
2022/05/02 09:29:14;;;;;;;;;;;;;;;;;;;;;
2022/05/02 09:32:09;;;;;;;;;52.50;43.00;;;;;18.65;40.77;101063.81;4811190;29;73028;-85
2022/05/02 09:34:58;;;;;;;;;49.25;41.50;;;;;18.47;41.10;101028.13;4814529;29;45028;-83
2022/05/02 09:37:44;;;;;;;;;49.75;42.50;;;;;18.26;41.24;100993.41;4817546;29;45375;-85
2022/05/02 09:40:31;;;;;;;;;42.25;36.50;;;;;18.50;40.99;101030.81;4871971;29;45091;-83
2022/05/02 09:53:52;;;;;;;;;49.00;39.33;;;;;19.03;40.36;101048.88;4890625;29;45401;-82
2022/05/02 10:01:16;;;;;;;;;;;;;;;;;;;;;
2022/05/02 10:03:01;;;;;;;;;50.25;40.00;;;;;19.18;40.04;101008.22;4805427;29;45586;-84
2022/05/02 10:06:28;;;;;;;;;40.00;34.33;;;;;19.50;39.56;101055.31;4786340;29;45557;-84
2022/05/02 10:09:42;;;;;;;;;46.67;38.67;;;;;19.42;39.40;101049.16;4742201;29;45463;-84
2022/05/02 10:16:25;;;;;;;;;43.67;36.33;;;;;19.26;39.10;100997.28;4765017;29;45964;-84
2022/05/02 10:19:12;;;;;;;;;40.33;35.00;;;;;19.69;39.33;101050.44;4756404;29;45543;-84
2022/05/02 10:22:00;;;;;;;;;;;;;;;;;;;;;
2022/05/02 10:25:12;;;;;;;;;44.67;39.00;;;;;20.02;39.32;101045.34;4761379;29;66801;-84
2022/05/02 10:28:05;;;;;;;;;48.00;37.67;;;;;20.11;39.20;101039.78;4777456;29;45330;-83
2022/05/02 10:31:05;;;;;;;;;46.00;38.33;;;;;20.17;38.87;101039.63;4797864;29;47064;-84
2022/05/02 10:34:09;;;;;;;;;41.00;36.00;;;;;20.27;38.75;101032.25;4819216;29;45437;-84
2022/05/02 10:36:41;;;;;;;;;49.00;40.00;;;;;20.23;39.10;101001.69;4857961;29;45497;-83
2022/05/02 10:42:30;;;;;;;;;47.25;40.50;;;;;20.04;38.37;100995.81;4888580;29;44991;-83
2022/05/02 10:45:36;;;;;;;;;53.00;43.00;;;;;20.30;38.49;101030.38;4895057;29;44870;-85
2022/05/02 10:48:40;;;;;;;;;44.67;39.00;;;;;20.41;38.51;101021.13;4805474;29;45436;-85
2022/05/02 10:51:40;;;;;;;;;46.67;40.00;;;;;20.46;38.30;101019.19;4815092;29;45515;-85
2022/05/02 10:54:42;;;;;;;;;51.00;41.33;;;;;20.53;37.58;101005.53;4837903;29;45574;-84
2022/05/02 10:57:34;;;;;;;;;46.33;37.33;;;;;20.26;37.96;100979.13;4834385;29;45481;-84
2022/05/02 11:00:25;;;;;;;;;48.67;41.00;;;;;20.46;37.88;101012.00;4817683;29;46032;-85
2022/05/02 11:03:26;;;;;;;;;42.67;36.00;;;;;20.49;37.79;101005.63;4835830;29;45442;-82
2022/05/02 11:06:22;;;;;;;;;40.67;35.67;;;;;20.46;37.96;100998.50;4821906;29;45536;-84
2022/05/02 11:08:59;;;;;;;;;40.33;35.00;;;;;20.40;37.80;100985.13;4820673;29;45431;-84
2022/05/02 11:11:48;;;;;;;;;42.67;35.00;;;;;20.72;37.08;100997.03;4834381;29;44996;-83
2022/05/02 11:15:05;;;;;;;;;;;;;;;;;;;;;
2022/05/02 11:20:41;;;;;;;;;36.67;33.33;;;;;20.90;37.08;100985.75;4833384;29;45183;-84
2022/05/02 11:28:37;;;;;;;;;;;;;;;;;;;;;
2022/05/02 11:31:25;;;;;;;;;40.00;35.67;;;;;21.34;36.41;100986.44;4818318;29;74608;-85
2022/05/02 11:34:01;;;;;;;;;40.00;34.33;;;;;21.21;35.92;100985.00;4821482;29;45569;-85
2022/05/02 11:36:43;;;;;;;;;37.67;34.33;;;;;21.09;35.81;100964.56;4807305;29;45445;-85
2022/05/02 11:54:08;;;;;;;;;32.00;31.00;;;;;21.34;36.23;100985.56;4801855;29;44897;-85
2022/05/02 11:56:59;;;;;;;;;;;;;;;;;;;;;
2022/05/02 11:59:55;;;;;;;;;36.33;31.00;;;;;21.35;36.31;100931.41;4864654;29;73623;-87
2022/05/02 12:19:36;;;;;;;;;45.00;36.33;;;;;21.19;34.74;100919.22;5234274;23;45675;-84
2022/05/02 14:32:37;;;;;;;;;31.00;28.00;;;;;21.17;34.84;100894.94;4446490;23;45968;31
2022/05/02 14:36:03;;;;;;;;;27.00;24.67;;;;;21.34;34.42;100899.84;4844239;29;45557;-84
2022/05/02 14:39:14;;;;;;;;;24.00;23.33;;;;;21.21;34.25;100848.84;4774416;29;44866;-84
2022/05/02 14:42:01;;;;;;;;;28.67;27.67;;;;;21.49;33.92;100885.06;4778558;29;45321;-85
2022/05/02 14:44:34;;;;;;;;;23.00;23.00;;;;;21.32;34.32;100884.59;4766781;29;45566;-83
2022/05/02 14:47:41;;;;;;;;;23.00;21.33;;;;;21.15;34.09;100867.03;4768476;29;45602;-86
2022/05/02 14:50:27;;;;;;;;;27.00;27.00;;;;;20.91;34.18;100822.63;4753332;29;44954;-86
2022/05/02 14:52:55;;;;;;;;;24.33;23.33;;;;;21.26;34.66;100877.53;4767006;29;45374;-82
2022/05/02 14:55:25;;;;;;;;;26.67;23.67;;;;;21.13;34.06;100863.50;4751247;29;46039;-86
2022/05/02 14:58:00;;;;;;;;;34.00;29.67;;;;;21.07;34.18;100860.06;4762349;29;45693;-82
2022/05/02 15:00:30;;;;;;;;;27.33;26.67;;;;;21.14;34.28;100877.88;4760446;29;44934;-84
2022/05/02 15:03:20;;;;;;;;;24.33;22.67;;;;;21.00;34.28;100837.69;4768054;29;45522;-86
2022/05/02 15:05:46;;;;;;;;;26.33;26.33;;;;;21.16;34.06;100852.56;4751757;29;45426;-85
2022/05/02 15:08:40;;;;;;;;;24.00;24.00;;;;;21.70;33.92;100872.69;4766694;29;44946;-84
2022/05/02 15:11:54;;;;;;;;;22.00;20.33;;;;;21.90;33.01;100860.38;4766114;29;45079;-85
2022/05/02 15:15:08;;;;;;;;;;;;;;;;;;;;;
2022/05/02 15:23:02;;;;;;;;;21.67;21.67;;;;;28.40;25.42;100821.50;5014180;23;45700;-84
2022/05/02 15:25:30;;;;;;;;;22.00;22.00;;;;;29.88;25.01;100847.06;4897208;29;47390;-84
2022/05/02 15:37:33;;;;;;;;;22.67;21.67;;;;;32.98;21.04;100822.22;4926414;28;45654;-86
2022/05/02 15:40:38;;;;;;;;;24.33;24.00;;;;;32.37;21.61;100830.59;4932458;28;45417;-86
2022/05/02 15:43:26;;;;;;;;;28.00;25.33;;;;;29.79;23.21;100831.19;4915505;29;45554;-86
2022/05/02 15:45:57;;;;;;;;;23.00;23.00;;;;;28.12;24.51;100814.94;4900623;29;45705;-86
2022/05/02 15:48:36;;;;;;;;;29.00;28.00;;;;;27.23;25.59;100825.31;4895016;29;46835;-85
2022/05/02 15:51:26;;;;;;;;;20.33;20.33;;;;;26.32;26.14;100835.47;4895219;28;44971;-86
2022/05/02 15:54:23;;;;;;;;;28.67;27.33;;;;;25.73;26.32;100840.13;4898119;28;45445;-86
2022/05/02 15:57:37;;;;;;;;;28.67;27.33;;;;;25.25;27.19;100839.63;4906700;28;45482;-85
2022/05/02 16:00:16;;;;;;;;;29.33;27.67;;;;;24.90;27.73;100831.16;4929350;28;45695;-86
2022/05/02 16:06:20;;;;;;;;;31.33;27.33;;;;;24.36;28.88;100838.00;4898254;29;45394;-84
2022/05/02 16:12:12;;;;;;;;;24.67;23.67;;;;;23.96;29.35;100843.22;4881476;29;45806;-84
2022/05/02 16:14:42;;;;;;;;;26.00;24.67;;;;;23.82;29.22;100832.03;4892564;29;45857;-83
2022/05/02 16:17:10;;;;;;;;;23.33;22.67;;;;;23.79;28.51;100856.56;4861162;29;45377;-83
2022/05/02 16:19:46;;;;;;;;;24.33;23.00;;;;;23.48;29.19;100843.28;4867336;29;45528;-85
2022/05/02 16:22:15;;;;;;;;;27.33;27.33;;;;;23.12;29.38;100843.69;4897717;29;45388;-85
2022/05/02 16:24:47;;;;;;;;;26.67;25.33;;;;;23.06;29.60;100855.66;4880549;29;45345;-86
2022/05/02 16:27:20;;;;;;;;;22.67;22.67;;;;;22.89;30.19;100845.38;4877603;29;45398;-84
2022/05/02 16:33:32;;;;;;;;;27.33;24.67;;;;;22.74;29.96;100849.53;4895799;28;45726;-85
2022/05/02 16:35:58;;;;;;;;;24.33;24.33;;;;;22.57;31.08;100839.25;4866648;29;45445;-86
2022/05/02 16:38:29;;;;;;;;;27.00;27.00;;;;;22.55;30.55;100849.25;4903501;29;45561;-85
2022/05/02 16:40:57;;;;;;;;;29.33;29.33;;;;;22.22;31.58;100853.94;4878890;29;45062;-85
2022/05/02 16:43:24;;;;;;;;;25.67;25.67;;;;;22.17;31.86;100845.06;4879760;29;46281;-85
2022/05/02 16:45:52;;;;;;;;;24.33;22.33;;;;;22.14;31.41;100843.34;4888673;28;44853;-84
2022/05/02 16:48:20;;;;;;;;;29.33;28.67;;;;;22.15;31.83;100845.09;4897953;29;44900;-86
2022/05/02 16:50:49;;;;;;;;;33.00;31.00;;;;;22.18;31.82;100854.97;4898914;29;44906;-85